createdAt,value
2019-04-23T00:00:17.141Z,96.60
2019-04-23T00:05:30.206Z,96.00
2019-04-23T00:10:31.225Z,95.80
2019-04-23T00:16:03.007Z,96.00
2019-04-23T00:26:41.854Z,95.80
2019-04-23T00:31:49.903Z,95.60
2019-04-23T00:37:01.769Z,96.00
2019-04-23T00:42:17.693Z,95.70
2019-04-23T00:47:25.351Z,95.40
2019-04-23T00:52:33.524Z,95.60
2019-04-23T00:57:47.050Z,94.40
2019-04-23T01:02:58.982Z,94.80
2019-04-23T01:07:58.115Z,93.60
2019-04-23T01:13:08.665Z,94.40
2019-04-23T01:18:28.166Z,93.90
2019-04-23T01:23:14.239Z,93.70
2019-04-23T01:28:49.770Z,93.20
2019-04-23T01:33:56.639Z,92.90
2019-04-23T01:39:06.503Z,93.20
2019-04-23T01:44:14.226Z,93.20
2019-04-23T01:49:30.618Z,93.20
2019-04-23T01:54:31.069Z,93.60
2019-04-23T01:59:38.563Z,93.30
2019-04-23T02:04:58.024Z,92.70
2019-04-23T02:10:08.364Z,92.40
2019-04-23T02:15:15.143Z,93.30
2019-04-23T02:20:26.189Z,93.10
2019-04-23T02:25:39.657Z,93.60
2019-04-23T02:31:18.554Z,92.60
2019-04-23T02:51:21.652Z,92.60
2019-04-23T02:56:37.491Z,92.40
2019-04-23T03:01:31.246Z,93.30
2019-04-23T03:06:48.091Z,93.70
2019-04-23T03:22:15.694Z,91.30
2019-04-23T03:27:37.245Z,91.30
2019-04-23T03:32:50.794Z,90.70
2019-04-23T03:38:05.873Z,90.80
2019-04-23T03:43:06.593Z,91.10
2019-04-23T03:48:16.817Z,90.40
2019-04-23T03:53:25.838Z,88.50
2019-04-23T03:58:34.353Z,83.10
2019-04-23T04:04:03.812Z,81.90
2019-04-23T04:08:50.813Z,80.00
2019-04-23T04:14:04.777Z,77.50
2019-04-23T04:19:06.412Z,77.80
2019-04-23T04:24:27.523Z,75.80
2019-04-23T04:29:21.097Z,72.30
2019-04-23T04:39:42.857Z,70.60
2019-04-23T04:45:00.335Z,70.90
2019-04-23T04:49:55.670Z,67.50
2019-04-23T04:55:09.976Z,67.10
2019-04-23T05:10:39.283Z,62.40
2019-04-23T05:15:37.357Z,62.70
2019-04-23T05:20:53.476Z,61.30
2019-04-23T05:25:50.040Z,59.70
2019-04-23T05:31:12.239Z,58.80
2019-04-23T05:36:20.186Z,58.10
2019-04-23T05:41:23.471Z,56.60
2019-04-23T05:46:33.770Z,55.90
2019-04-23T05:51:44.531Z,55.90
2019-04-23T05:56:46.754Z,55.10
2019-04-23T06:07:15.164Z,54.30
2019-04-23T06:12:25.192Z,53.60
2019-04-23T06:17:21.262Z,52.90
2019-04-23T06:22:38.969Z,52.30
2019-04-23T06:27:43.135Z,50.70
2019-04-23T06:32:54.609Z,50.10
2019-04-23T06:38:32.982Z,48.90
2019-04-23T06:43:43.684Z,49.10
2019-04-23T06:48:47.714Z,47.50
2019-04-23T06:53:59.968Z,47.90
2019-04-23T06:59:05.918Z,48.00
2019-04-23T07:04:22.054Z,47.10
2019-04-23T07:09:15.241Z,46.70
2019-04-23T07:14:38.624Z,45.50
2019-04-23T07:19:44.992Z,45.80
2019-04-23T07:24:49.502Z,45.40
2019-04-23T07:30:03.564Z,44.30
2019-04-23T07:46:08.128Z,43.10
2019-04-23T07:50:59.001Z,43.80
2019-04-23T07:56:13.244Z,42.10
2019-04-23T08:01:17.924Z,42.80
2019-04-23T08:06:31.391Z,42.30
2019-04-23T08:11:39.873Z,41.60
2019-04-23T08:16:46.580Z,41.70
2019-04-23T08:22:07.106Z,41.00
2019-04-23T08:27:21.496Z,40.60
2019-04-23T08:53:34.240Z,39.10
2019-04-23T09:03:34.858Z,37.50
2019-04-23T09:08:43.740Z,37.50
2019-04-23T09:13:57.428Z,36.70
2019-04-23T09:19:11.118Z,36.60
2019-04-23T09:24:11.801Z,36.60
2019-04-23T09:29:28.311Z,36.00
2019-04-23T09:34:52.367Z,37.30
2019-04-23T09:40:27.645Z,36.50
2019-04-23T09:55:53.102Z,34.80
2019-04-23T10:01:27.287Z,35.50
2019-04-23T10:06:18.536Z,34.20
2019-04-23T10:11:19.924Z,34.20
2019-04-23T10:16:30.949Z,34.10
2019-04-23T10:21:37.457Z,32.70
2019-04-23T10:26:45.768Z,34.60
2019-04-23T10:31:53.581Z,33.30
2019-04-23T10:37:02.033Z,32.30
2019-04-23T10:42:10.090Z,32.40
2019-04-23T10:48:13.840Z,32.90
2019-04-23T10:58:24.687Z,32.90
2019-04-23T11:08:38.636Z,32.60
2019-04-23T11:13:53.194Z,32.20
2019-04-23T11:19:09.304Z,33.50
2019-04-23T11:24:21.006Z,33.60
2019-04-23T11:29:29.078Z,32.80
2019-04-23T11:34:53.423Z,34.40
2019-04-23T11:39:45.248Z,33.20
2019-04-23T11:44:52.177Z,33.90
2019-04-23T11:55:15.079Z,33.30
2019-04-23T12:00:14.565Z,32.50
2019-04-23T12:16:23.866Z,31.60
2019-04-23T12:21:28.432Z,31.60
2019-04-23T12:26:35.535Z,32.10
2019-04-23T12:32:15.592Z,31.00
2019-04-23T12:37:17.149Z,30.00
2019-04-23T12:42:43.634Z,30.10
2019-04-23T12:47:43.701Z,29.60
2019-04-23T12:52:40.738Z,29.90
2019-04-23T12:57:46.909Z,30.00
2019-04-23T13:08:08.333Z,29.30
2019-04-23T13:18:23.419Z,29.20
2019-04-23T13:28:40.524Z,29.50
2019-04-23T13:33:43.843Z,29.30
2019-04-23T13:38:57.015Z,28.90
2019-04-23T13:44:00.092Z,29.70
2019-04-23T13:49:18.120Z,29.30
2019-04-23T13:54:47.594Z,30.00
2019-04-23T14:05:00.137Z,29.30
2019-04-23T14:10:20.086Z,29.60
2019-04-23T14:15:34.413Z,29.70
2019-04-23T14:20:28.080Z,28.90
2019-04-23T14:25:40.111Z,29.50
2019-04-23T14:30:54.425Z,30.40
2019-04-23T14:35:56.335Z,31.10
2019-04-23T14:41:14.940Z,30.70
2019-04-23T14:46:34.378Z,29.90
2019-04-23T14:51:44.184Z,30.40
2019-04-23T14:56:38.955Z,30.00
2019-04-23T15:12:09.657Z,33.10
2019-04-23T15:17:15.876Z,32.50
2019-04-23T15:22:20.473Z,33.00
2019-04-23T15:28:03.504Z,32.00
2019-04-23T15:32:53.603Z,31.90
2019-04-23T15:43:02.489Z,32.30
2019-04-23T15:48:11.847Z,33.60
2019-04-23T15:53:05.927Z,34.60
2019-04-23T15:58:33.229Z,34.30
2019-04-23T16:03:04.655Z,34.80
2019-04-23T16:08:45.817Z,35.80
2019-04-23T16:14:07.633Z,36.80
2019-04-23T16:19:13.679Z,35.20
2019-04-23T16:29:54.053Z,35.60
2019-04-23T16:34:39.710Z,37.00
2019-04-23T16:40:03.390Z,36.30
2019-04-23T16:55:26.972Z,37.30
2019-04-23T17:00:33.463Z,37.90
2019-04-23T17:16:08.115Z,38.20
2019-04-23T17:21:13.352Z,37.60
2019-04-23T17:26:19.342Z,38.10
2019-04-23T17:36:38.525Z,39.20
2019-04-23T17:47:27.281Z,39.90
2019-04-23T17:52:35.006Z,40.00
2019-04-23T17:57:43.589Z,40.00
2019-04-23T18:08:03.279Z,41.10
2019-04-23T18:13:13.370Z,41.30
2019-04-23T18:18:19.658Z,41.40
2019-04-23T18:23:22.268Z,41.60
2019-04-23T18:28:37.275Z,41.80
2019-04-23T18:44:13.238Z,41.50
2019-04-23T18:49:28.268Z,42.60
2019-04-23T18:54:29.614Z,42.50
2019-04-23T19:05:08.646Z,42.60
2019-04-23T19:10:39.858Z,42.00
2019-04-23T19:15:42.585Z,42.50
2019-04-23T19:21:13.857Z,42.70
2019-04-23T19:26:09.588Z,43.30
2019-04-23T19:31:33.876Z,43.10
2019-04-23T19:36:52.571Z,42.90
2019-04-23T19:42:01.484Z,42.70
2019-04-23T19:47:01.707Z,42.50
2019-04-23T19:57:15.192Z,43.30
2019-04-23T20:02:37.191Z,43.00
2019-04-23T20:07:43.722Z,43.00
2019-04-23T20:12:40.036Z,42.90
2019-04-23T20:17:51.383Z,42.70
2019-04-23T20:28:31.129Z,43.00
2019-04-23T20:33:58.291Z,43.00
2019-04-23T20:38:48.592Z,43.60
2019-04-23T20:43:49.007Z,43.30
2019-04-23T20:48:53.051Z,44.50
2019-04-23T20:54:02.058Z,43.50
2019-04-23T20:59:11.849Z,44.60
2019-04-23T21:04:24.943Z,44.40
2019-04-23T21:19:59.796Z,44.70
2019-04-23T21:24:54.330Z,44.90
2019-04-23T21:30:06.173Z,45.20
2019-04-23T21:35:16.179Z,45.00
2019-04-23T21:41:06.186Z,45.60
2019-04-23T21:46:13.307Z,45.80
2019-04-23T21:51:26.512Z,46.70
2019-04-23T21:56:21.530Z,45.60
2019-04-23T22:06:43.296Z,46.30
2019-04-23T22:17:03.294Z,46.40
2019-04-23T22:22:02.590Z,47.00
2019-04-23T22:27:11.704Z,47.10
2019-04-23T22:32:31.136Z,47.30
2019-04-23T22:37:32.372Z,47.20
2019-04-23T22:43:01.176Z,47.00
2019-04-23T22:53:00.422Z,47.40
2019-04-23T22:58:11.453Z,46.60
2019-04-23T23:03:29.439Z,47.50
2019-04-23T23:13:53.441Z,47.60
2019-04-23T23:19:01.938Z,47.50
2019-04-23T23:23:59.420Z,47.80
2019-04-23T23:29:05.786Z,47.80
2019-04-23T23:34:15.609Z,48.10
2019-04-23T23:39:29.240Z,49.00
2019-04-23T23:44:47.918Z,48.90
2019-04-23T23:49:55.004Z,49.10
2019-04-23T23:55:01.036Z,49.30
